Time;durP1;ratioP1;P1;durP2;ratioP2;P2;SDS_P1;SDS_P2;PMS_P1;PMS_P2;Temp;Humidity;BMP_temperature;BMP_pressure;BME280_temperature;BME280_humidity;BME280_pressure;Samples;Min_cycle;Max_cycle;Signal;HPM_P1;HPM_P2
2023/08/17 00:02:02;;;;;;;12.90;3.80;;;19.00;50.10;;;;;;5051235;28;20258;-80
2023/08/17 00:04:52;;;;;;;8.70;4.30;;;19.00;50.20;;;;;;5042946;28;20895;-80
2023/08/17 00:07:17;;;;;;;20.90;5.37;;;19.00;50.00;;;;;;5050928;28;20231;-81
2023/08/17 00:09:43;;;;;;;16.20;4.00;;;19.00;46.80;;;;;;5053152;28;20532;-81
2023/08/17 00:12:46;;;;;;;36.40;4.63;;;19.00;50.20;;;;;;5049385;28;20265;-81
2023/08/17 00:21:55;;;;;;;9.97;3.80;;;19.20;50.10;;;;;;5055839;28;20424;-81
2023/08/17 00:24:21;;;;;;;9.43;4.50;;;19.20;50.20;;;;;;5052122;28;20446;-81
2023/08/17 00:30:28;;;;;;;15.00;4.40;;;19.10;50.00;;;;;;5042589;28;20277;-81
2023/08/17 00:39:37;;;;;;;12.53;4.50;;;18.90;49.80;;;;;;5054290;28;20392;-80
2023/08/17 00:42:16;;;;;;;7.60;3.40;;;18.80;49.80;;;;;;5056597;28;20412;-80
2023/08/17 00:48:07;;;;;;;17.03;4.30;;;18.60;49.60;;;;;;5047974;28;20372;-80
2023/08/17 00:51:10;;;;;;;9.57;4.10;;;18.50;49.60;;;;;;5055065;28;20423;-80
2023/08/17 00:57:45;;;;;;;13.07;4.07;;;18.40;49.50;;;;;;5053710;28;20379;-80
2023/08/17 01:07:12;;;;;;;7.57;3.83;;;18.20;49.20;;;;;;5052280;28;20458;-80
2023/08/17 01:09:38;;;;;;;11.00;4.93;;;18.20;49.40;;;;;;5055337;28;20414;-80
2023/08/17 01:12:29;;;;;;;17.40;5.17;;;18.10;49.30;;;;;;5055730;28;20415;-80
2023/08/17 01:15:01;;;;;;;15.57;4.70;;;18.10;49.40;;;;;;5055355;28;20508;-80
2023/08/17 01:24:11;;;;;;;18.53;5.43;;;18.00;49.00;;;;;;5042251;28;20409;-80
2023/08/17 01:27:10;;;;;;;10.43;5.40;;;17.90;45.80;;;;;;5040568;28;20438;-81
2023/08/17 01:33:06;;;;;;;18.03;5.87;;;17.80;51.50;;;;;;5052269;28;20471;-80
2023/08/17 01:36:00;;;;;;;16.70;4.97;;;17.80;53.50;;;;;;5048252;28;20432;-80
2023/08/17 01:41:48;;;;;;;16.83;5.10;;;17.80;54.70;;;;;;5003585;28;20449;-81
2023/08/17 01:47:52;;;;;;;19.47;5.63;;;17.70;57.50;;;;;;5013123;28;20986;-81
2023/08/17 01:50:57;;;;;;;12.03;5.20;;;17.70;53.80;;;;;;4995935;28;20433;-81
2023/08/17 01:54:03;;;;;;;14.50;5.00;;;17.60;48.70;;;;;;5010195;28;20473;-80
2023/08/17 01:56:40;;;;;;;21.13;4.67;;;17.60;53.00;;;;;;5013030;28;20484;-80
2023/08/17 02:02:27;;;;;;;17.80;5.40;;;17.60;59.90;;;;;;5012220;28;20455;-80
2023/08/17 02:05:22;;;;;;;20.90;5.60;;;17.50;59.30;;;;;;5013024;28;20422;-80
2023/08/17 02:07:47;;;;;;;13.97;5.70;;;17.50;60.90;;;;;;5009882;28;20277;-80
2023/08/17 02:10:13;;;;;;;10.10;6.17;;;17.50;58.50;;;;;;5014991;28;20537;-80
2023/08/17 02:16:00;;;;;;;16.20;5.70;;;17.40;64.00;;;;;;5029060;28;20259;-81
2023/08/17 02:21:47;;;;;;;20.37;5.70;;;17.40;60.30;;;;;;5054523;28;20177;-80
2023/08/17 02:34:19;;;;;;;12.80;5.77;;;17.30;59.10;;;;;;5046646;28;20510;-80
2023/08/17 02:40:18;;;;;;;28.53;6.07;;;17.20;63.50;;;;;;5044410;28;20174;-80
2023/08/17 02:46:16;;;;;;;10.70;5.23;;;17.20;64.90;;;;;;5049079;28;20395;-80
2023/08/17 02:52:03;;;;;;;19.23;6.40;;;17.20;68.10;;;;;;5044854;28;20424;-82
2023/08/17 03:04:34;;;;;;;13.40;5.40;;;17.10;69.30;;;;;;5036068;28;20518;-81
2023/08/17 03:07:12;;;;;;;17.33;5.57;;;17.00;70.20;;;;;;5048123;28;20822;-81
2023/08/17 03:09:59;;;;;;;20.73;5.50;;;17.00;70.60;;;;;;5053861;28;20623;-81
2023/08/17 03:15:46;;;;;;;12.30;5.80;;;17.00;72.40;;;;;;5041630;28;20468;-81
2023/08/17 03:21:34;;;;;;;20.97;4.90;;;17.00;72.40;;;;;;5048107;28;20172;-81
2023/08/17 03:24:10;;;;;;;17.47;5.07;;;17.00;72.10;;;;;;5051010;28;20431;-80
2023/08/17 03:37:22;;;;;;;16.60;5.23;;;16.90;68.70;;;;;;5048628;28;20466;-84
2023/08/17 03:43:22;;;;;;;21.60;6.03;;;16.90;74.80;;;;;;5051199;28;20457;-83
2023/08/17 03:46:12;;;;;;;37.63;6.87;;;16.90;82.30;;;;;;5052163;28;20420;-82
2023/08/17 03:51:59;;;;;;;20.27;6.47;;;16.90;78.40;;;;;;5054745;28;20772;-82
2023/08/17 03:54:40;;;;;;;17.80;6.37;;;16.90;74.90;;;;;;5059867;28;20425;-83
2023/08/17 03:57:16;;;;;;;25.93;7.50;;;16.90;79.60;;;;;;5066488;28;20208;-82
2023/08/17 04:03:34;;;;;;;21.43;7.00;;;16.90;76.30;;;;;;5036174;28;20462;-83
2023/08/17 04:06:34;;;;;;;18.83;5.60;;;16.90;79.10;;;;;;5055473;28;20436;-83
2023/08/17 04:09:16;;;;;;;36.47;6.00;;;16.90;77.20;;;;;;5056403;28;20426;-83
2023/08/17 04:11:52;;;;;;;21.60;5.97;;;16.80;78.00;;;;;;5037626;28;20432;-83
2023/08/17 04:14:46;;;;;;;17.63;5.17;;;16.80;78.00;;;;;;5055160;28;20443;-83
2023/08/17 04:17:16;;;;;;;21.20;5.67;;;16.80;77.80;;;;;;5057127;28;20954;-83
2023/08/17 04:19:42;;;;;;;19.70;5.33;;;16.80;77.50;;;;;;5054117;28;20428;-83
2023/08/17 04:22:10;;;;;;;21.37;4.53;;;16.80;77.60;;;;;;5050432;28;20417;-83
2023/08/17 04:24:40;;;;;;;27.40;6.13;;;16.80;78.00;;;;;;5050266;28;20178;-84
2023/08/17 04:27:17;;;;;;;12.60;4.23;;;16.80;79.40;;;;;;5054937;28;20432;-84
2023/08/17 04:29:43;;;;;;;10.30;4.30;;;16.80;78.90;;;;;;5067488;28;20414;-84
2023/08/17 04:32:15;;;;;;;36.67;5.03;;;16.80;78.30;;;;;;5072721;28;20422;-83
2023/08/17 04:34:42;;;;;;;26.07;4.63;;;16.90;75.70;;;;;;5047620;28;20503;-84
2023/08/17 04:37:57;;;;;;;21.17;5.20;;;16.90;78.30;;;;;;5056633;28;20419;-84
2023/08/17 04:40:28;;;;;;;18.37;5.40;;;16.90;75.80;;;;;;5045287;28;20437;-84
2023/08/17 04:43:04;;;;;;;28.83;5.20;;;16.90;80.00;;;;;;5055250;28;20409;-84
2023/08/17 04:45:30;;;;;;;20.30;5.07;;;16.90;80.80;;;;;;5053553;28;20421;-85
2023/08/17 04:47:56;;;;;;;13.23;5.67;;;16.90;81.20;;;;;;5045576;28;20832;-84
2023/08/17 04:50:21;;;;;;;26.60;5.13;;;17.00;81.80;;;;;;5055018;28;20188;-84
2023/08/17 04:52:52;;;;;;;21.00;5.20;;;17.00;77.70;;;;;;5047654;28;20194;-84
2023/08/17 04:55:18;;;;;;;19.40;4.30;;;17.00;80.90;;;;;;5040968;28;20245;-84
2023/08/17 04:57:44;;;;;;;28.10;5.27;;;17.10;80.90;;;;;;5041490;28;20946;-84
2023/08/17 05:00:10;;;;;;;18.53;5.30;;;15.50;79.10;;;;;;5055980;28;20268;-84
2023/08/17 05:02:37;;;;;;;15.27;4.67;;;17.10;81.60;;;;;;5051261;28;20425;-84
2023/08/17 05:05:10;;;;;;;12.60;4.47;;;17.10;82.00;;;;;;5048537;28;20781;-84
2023/08/17 05:07:36;;;;;;;21.03;4.70;;;17.10;80.70;;;;;;5039138;28;20529;-84
2023/08/17 05:10:02;;;;;;;19.83;5.30;;;17.10;79.30;;;;;;5043420;28;20540;-84
2023/08/17 05:12:28;;;;;;;16.23;5.40;;;17.20;81.30;;;;;;5066338;28;20610;-84
2023/08/17 05:15:04;;;;;;;23.67;5.17;;;17.20;85.20;;;;;;5070784;28;20540;-84
2023/08/17 05:20:58;;;;;;;17.53;5.50;;;17.30;80.40;;;;;;5036324;28;20419;-84
2023/08/17 05:33:58;;;;;;;14.50;6.00;;;17.50;82.30;;;;;;5046539;28;20867;-83
2023/08/17 05:39:45;;;;;;;26.50;6.63;;;17.60;85.70;;;;;;5055995;28;20397;-85
2023/08/17 05:42:22;;;;;;;28.37;7.33;;;17.70;87.50;;;;;;5068239;28;20403;-84
2023/08/17 05:48:10;;;;;;;21.87;6.60;;;17.90;90.40;;;;;;5053989;28;20446;-83
2023/08/17 05:50:36;;;;;;;17.17;7.03;;;17.90;90.90;;;;;;5060614;28;20416;-83
2023/08/17 05:53:16;;;;;;;20.73;6.00;;;18.00;91.20;;;;;;5048256;28;20199;-84
2023/08/17 05:59:28;;;;;;;19.63;6.70;;;18.20;92.70;;;;;;5048247;28;20459;-84
2023/08/17 06:02:22;;;;;;;29.00;7.17;;;18.30;93.10;;;;;;5053186;28;20471;-83
2023/08/17 06:05:40;;;;;;;17.77;6.87;;;18.40;94.80;;;;;;5045461;28;20447;-83
2023/08/17 06:08:06;;;;;;;33.83;11.40;;;18.60;96.30;;;;;;5053867;28;20467;-83
2023/08/17 06:10:35;;;;;;;42.57;17.10;;;19.00;97.00;;;;;;5052242;28;20862;-82
2023/08/17 06:16:22;;;;;;;62.17;19.37;;;19.10;93.60;;;;;;5039772;28;20453;-82
2023/08/17 06:22:10;;;;;;;62.40;21.40;;;19.30;84.40;;;;;;5054703;28;20719;-82
2023/08/17 06:35:16;;;;;;;32.23;13.90;;;19.90;50.70;;;;;;5049609;28;20419;-82
2023/08/17 06:44:52;;;;;;;27.03;12.07;;;20.00;51.00;;;;;;5036168;28;20383;-82
2023/08/17 06:47:40;;;;;;;17.47;9.70;;;20.20;51.10;;;;;;5045255;28;20435;-81
2023/08/17 06:54:10;;;;;;;13.00;8.80;;;20.50;34.80;;;;;;5043964;28;20860;-81
2023/08/17 06:59:57;;;;;;;12.73;8.30;;;20.50;32.50;;;;;;5053059;28;20908;-81
2023/08/17 07:02:47;;;;;;;15.87;8.67;;;20.50;19.10;;;;;;5048273;28;20419;-81
2023/08/17 07:05:28;;;;;;;11.43;8.10;;;20.60;24.10;;;;;;5053674;28;20221;-80
2023/08/17 07:07:55;;;;;;;10.77;7.37;;;20.70;19.50;;;;;;5052466;28;20476;-81
2023/08/17 07:10:20;;;;;;;22.30;9.20;;;20.60;18.60;;;;;;5043889;28;20395;-80
2023/08/17 07:16:08;;;;;;;12.90;8.60;;;20.80;21.40;;;;;;5052915;28;20548;-81
2023/08/17 07:19:27;;;;;;;13.63;8.77;;;20.90;15.00;;;;;;5053400;28;20411;-81
2023/08/17 07:22:28;;;;;;;15.40;7.90;;;21.00;12.80;;;;;;5053693;28;20181;-81
2023/08/17 07:28:15;;;;;;;9.43;6.23;;;21.40;10.00;;;;;;5043076;28;20919;-81
2023/08/17 07:34:03;;;;;;;6.90;5.20;;;21.50;1.00;;;;;;5050159;28;20236;-81
2023/08/17 07:43:28;;;;;;;9.23;4.30;;;22.00;1.00;;;;;;5053263;28;20401;-81
2023/08/17 07:49:16;;;;;;;4.83;4.33;;;22.20;1.00;;;;;;5042059;28;20947;-81
2023/08/17 07:51:58;;;;;;;6.90;3.70;;;22.30;1.00;;;;;;5053196;28;20505;-81
2023/08/17 07:54:58;;;;;;;5.07;3.20;;;22.40;1.00;;;;;;5051946;28;20208;-81
2023/08/17 08:01:16;;;;;;;5.60;4.10;;;22.60;1.00;;;;;;5043670;28;20386;-81
2023/08/17 08:04:28;;;;;;;6.10;3.50;;;22.80;1.00;;;;;;5033602;28;20430;-80
2023/08/17 08:07:12;;;;;;;3.00;2.80;;;22.90;1.00;;;;;;5048398;28;20498;-80
2023/08/17 08:09:38;;;;;;;5.20;3.10;;;23.10;1.00;;;;;;5053061;28;20549;-80
2023/08/17 08:12:28;;;;;;;8.83;3.10;;;23.10;1.00;;;;;;5053412;28;20412;-81
2023/08/17 08:18:15;;;;;;;3.10;2.60;;;23.40;1.00;;;;;;5040688;28;20382;-81
2023/08/17 08:20:58;;;;;;;9.70;2.50;;;23.60;1.00;;;;;;5057313;28;20911;-81
2023/08/17 08:23:58;;;;;;;2.70;2.40;;;23.70;1.00;;;;;;5046395;28;20661;-82
2023/08/17 08:26:28;;;;;;;5.43;2.70;;;23.70;1.00;;;;;;5040728;28;20415;-81
2023/08/17 08:32:16;;;;;;;3.97;2.90;;;24.10;1.00;;;;;;5052108;28;20923;-81
2023/08/17 08:34:58;;;;;;;4.03;3.20;;;24.00;1.00;;;;;;5052862;28;20447;-81
2023/08/17 08:37:58;;;;;;;2.73;2.53;;;24.10;1.00;;;;;;5052929;28;20895;-80
2023/08/17 08:44:28;;;;;;;7.43;2.47;;;24.20;1.00;;;;;;5055628;28;20423;-82
2023/08/17 08:50:58;;;;;;;6.03;2.47;;;24.50;1.00;;;;;;5049854;28;20428;-84
2023/08/17 08:54:04;;;;;;;2.63;2.40;;;24.70;1.00;;;;;;5054983;28;20979;-84
2023/08/17 08:57:00;;;;;;;5.27;2.53;;;24.80;1.00;;;;;;5040711;28;21034;-83
2023/08/17 09:06:29;;;;;;;4.50;2.57;;;25.00;1.00;;;;;;5049098;28;20398;-84
2023/08/17 09:08:57;;;;;;;2.57;2.37;;;24.90;1.00;;;;;;5035145;28;20441;-84
2023/08/17 09:11:23;;;;;;;7.77;2.77;;;24.70;1.00;;;;;;5049116;28;20859;-83
2023/08/17 09:14:28;;;;;;;6.03;2.30;;;24.60;1.00;;;;;;5055723;28;20496;-80
2023/08/17 09:20:37;;;;;;;4.80;2.60;;;24.50;1.00;;;;;;5042249;28;20393;-80
2023/08/17 09:23:22;;;;;;;6.63;2.23;;;24.40;1.00;;;;;;5054286;28;20421;-79
2023/08/17 09:26:08;;;;;;;2.80;2.33;;;24.30;1.00;;;;;;5055506;28;20445;-79
2023/08/17 09:28:54;;;;;;;3.30;2.43;;;24.10;1.00;;;;;;5067412;28;20437;-83
2023/08/17 09:31:25;;;;;;;6.03;2.43;;;24.10;1.00;;;;;;5048688;28;20445;-83
2023/08/17 09:40:58;;;;;;;3.63;2.27;;;24.20;1.00;;;;;;5049684;28;20757;-84
2023/08/17 09:43:58;;;;;;;2.10;1.90;;;24.30;1.00;;;;;;5055812;28;20414;-84
2023/08/17 09:46:58;;;;;;;6.40;2.20;;;24.60;1.00;;;;;;5044516;28;20475;-83
2023/08/17 09:49:33;;;;;;;9.30;2.10;;;24.90;1.00;;;;;;5039407;28;20508;-83
2023/08/17 09:52:11;;;;;;;6.10;3.00;;;25.10;1.00;;;;;;5034346;28;20429;-84
2023/08/17 09:54:36;;;;;;;2.70;1.67;;;25.30;1.00;;;;;;5045697;28;20498;-84
2023/08/17 09:57:16;;;;;;;4.57;1.80;;;25.80;1.00;;;;;;5036872;28;20452;-79
2023/08/17 10:00:28;;;;;;;2.20;1.90;;;25.90;1.00;;;;;;5047787;28;20182;-79
2023/08/17 10:03:16;;;;;;;1.90;1.80;;;26.10;1.00;;;;;;5054843;28;20546;-79
2023/08/17 10:06:22;;;;;;;2.07;1.87;;;26.10;1.00;;;;;;5035603;28;20502;-79
2023/08/17 10:08:49;;;;;;;3.00;2.00;;;26.20;1.00;;;;;;4973625;28;20458;-79
2023/08/17 10:11:58;;;;;;;1.70;1.60;;;26.20;1.00;;;;;;4992533;28;20931;-79
2023/08/17 10:14:35;;;;;;;7.93;2.37;;;26.10;1.00;;;;;;4976866;28;20831;-78
2023/08/17 10:21:01;;;;;;;1.70;1.60;;;26.30;1.00;;;;;;4984392;28;20443;-79
2023/08/17 10:23:40;;;;;;;5.50;1.60;;;26.20;1.00;;;;;;4994050;28;20537;-79
2023/08/17 10:26:58;;;;;;;2.70;2.00;;;25.80;1.00;;;;;;4986152;28;20423;-79
2023/08/17 10:29:59;;;;;;;1.93;1.60;;;25.40;1.00;;;;;;4981844;28;20434;-83
2023/08/17 10:32:58;;;;;;;4.17;2.10;;;25.20;1.00;;;;;;4976945;28;20422;-83
2023/08/17 10:35:29;;;;;;;1.70;1.60;;;25.20;1.00;;;;;;4976958;28;20414;-83
2023/08/17 10:38:10;;;;;;;6.10;1.80;;;25.30;1.00;;;;;;4976343;28;20432;-83
2023/08/17 10:44:38;;;;;;;2.60;1.70;;;25.20;1.00;;;;;;5047786;28;20408;-80
2023/08/17 10:47:30;;;;;;;3.30;1.97;;;25.40;1.00;;;;;;5051456;28;20489;-80
2023/08/17 10:50:01;;;;;;;5.37;2.20;;;25.50;1.00;;;;;;5040451;28;20412;-79
2023/08/17 10:52:35;;;;;;;2.10;1.90;;;25.60;1.00;;;;;;5053804;28;20401;-79
2023/08/17 10:55:07;;;;;;;2.93;2.10;;;25.70;1.00;;;;;;5056170;28;20442;-79
2023/08/17 11:00:56;;;;;;;2.27;1.90;;;25.80;1.00;;;;;;5050010;28;20412;-83
2023/08/17 11:07:14;;;;;;;6.87;2.10;;;25.80;1.00;;;;;;5038890;28;20387;-83
2023/08/17 11:13:02;;;;;;;6.60;2.07;;;25.80;1.00;;;;;;5042403;28;20506;-83
2023/08/17 11:15:42;;;;;;;3.47;2.13;;;26.00;1.00;;;;;;5052780;28;20494;-83
2023/08/17 11:18:59;;;;;;;1.90;1.80;;;26.20;1.00;;;;;;5042314;28;20420;-83
2023/08/17 11:21:58;;;;;;;2.00;1.80;;;26.10;1.00;;;;;;5052560;28;20477;-83
2023/08/17 11:27:46;;;;;;;4.30;2.20;;;26.60;1.00;;;;;;5053601;28;20398;-82
2023/08/17 11:30:40;;;;;;;2.37;2.17;;;26.80;1.00;;;;;;5051938;28;20411;-80
2023/08/17 11:33:58;;;;;;;2.40;1.90;;;26.80;1.00;;;;;;5052852;28;20462;-79
2023/08/17 11:36:58;;;;;;;2.70;1.80;;;27.00;1.00;;;;;;5036902;28;20406;-79
2023/08/17 11:39:58;;;;;;;4.87;1.93;;;27.10;1.00;;;;;;5053047;28;20785;-79
2023/08/17 11:42:28;;;;;;;2.10;2.00;;;27.20;1.00;;;;;;5053180;28;20421;-79
2023/08/17 11:44:58;;;;;;;2.40;2.00;;;27.30;1.00;;;;;;5046894;28;20415;-79
2023/08/17 11:47:28;;;;;;;2.23;1.70;;;27.30;1.00;;;;;;5044768;28;21067;-79
2023/08/17 11:50:12;;;;;;;3.80;1.97;;;27.40;1.00;;;;;;5051976;28;20493;-80
2023/08/17 11:53:28;;;;;;;5.70;2.47;;;27.40;1.00;;;;;;5052862;28;20759;-79
2023/08/17 11:56:28;;;;;;;3.43;1.90;;;27.40;1.00;;;;;;5051477;28;20417;-79
2023/08/17 12:02:43;;;;;;;3.90;2.13;;;27.40;1.00;;;;;;5053052;28;20450;-82
2023/08/17 12:05:40;;;;;;;4.13;2.20;;;27.60;1.00;;;;;;5052596;28;20430;-82
2023/08/17 12:08:07;;;;;;;3.47;2.00;;;27.70;1.00;;;;;;5043610;28;20509;-82
2023/08/17 12:10:58;;;;;;;1.93;1.40;;;27.80;1.00;;;;;;5052724;28;20426;-82
2023/08/17 12:16:58;;;;;;;2.60;1.60;;;27.80;1.00;;;;;;5045622;28;20486;-82
2023/08/17 12:19:40;;;;;;;2.30;2.10;;;28.20;1.00;;;;;;5054033;28;20428;-82
2023/08/17 12:22:58;;;;;;;1.87;1.70;;;28.70;1.00;;;;;;5039741;28;20786;-83
2023/08/17 12:26:04;;;;;;;2.57;1.80;;;29.00;1.00;;;;;;5051260;28;20423;-83
2023/08/17 12:32:10;;;;;;;3.43;1.77;;;29.70;1.00;;;;;;5055514;28;20454;-79
2023/08/17 12:35:10;;;;;;;1.83;1.60;;;29.90;1.00;;;;;;5056326;28;20579;-80
2023/08/17 12:38:04;;;;;;;2.13;1.63;;;29.90;1.00;;;;;;5056646;28;20406;-80
2023/08/17 12:40:30;;;;;;;2.00;1.80;;;30.10;1.00;;;;;;5047491;28;20467;-81
2023/08/17 12:42:58;;;;;;;2.03;1.93;;;30.10;1.00;;;;;;5055617;28;20450;-79
2023/08/17 12:45:29;;;;;;;1.83;1.70;;;30.10;1.00;;;;;;5055724;28;20564;-80
2023/08/17 12:47:55;;;;;;;2.50;1.50;;;30.20;1.00;;;;;;5056362;28;20475;-80
2023/08/17 12:50:28;;;;;;;2.90;1.60;;;30.20;1.00;;;;;;5056165;28;20896;-80
2023/08/17 12:53:10;;;;;;;1.87;1.60;;;30.20;1.00;;;;;;5043371;28;20262;-80
2023/08/17 12:56:10;;;;;;;6.10;1.63;;;30.30;1.00;;;;;;5045100;28;20427;-80
2023/08/17 12:58:58;;;;;;;2.60;1.87;;;30.40;1.00;;;;;;5056333;28;20448;-80
2023/08/17 13:01:41;;;;;;;2.53;1.70;;;30.40;1.00;;;;;;5037236;28;20426;-80
2023/08/17 13:04:07;;;;;;;3.60;1.70;;;30.40;1.00;;;;;;5047957;28;20949;-79
2023/08/17 13:06:33;;;;;;;1.50;1.40;;;30.40;1.00;;;;;;5051442;28;20548;-80
2023/08/17 13:09:40;;;;;;;3.57;1.50;;;30.10;1.00;;;;;;5055040;28;20198;-78
2023/08/17 13:12:40;;;;;;;1.37;1.27;;;29.90;1.00;;;;;;5044920;28;20519;-78
2023/08/17 13:15:29;;;;;;;6.23;1.60;;;29.90;1.00;;;;;;5054636;28;20418;-82
2023/08/17 13:17:59;;;;;;;2.60;1.20;;;29.70;1.00;;;;;;5053725;28;20524;-83
2023/08/17 13:20:28;;;;;;;3.73;2.07;;;29.70;1.00;;;;;;5045979;28;20426;-83
2023/08/17 13:23:11;;;;;;;2.73;1.50;;;29.60;1.00;;;;;;5040448;28;20472;-84
2023/08/17 13:26:10;;;;;;;6.03;1.40;;;29.50;1.00;;;;;;5051651;28;20920;-82
2023/08/17 13:28:58;;;;;;;3.73;1.90;;;29.60;1.00;;;;;;5047478;28;20792;-82
2023/08/17 13:31:58;;;;;;;1.70;1.50;;;29.70;1.00;;;;;;5052721;28;20418;-82
2023/08/17 13:34:29;;;;;;;7.93;2.00;;;29.80;1.00;;;;;;5050495;28;20536;-82
2023/08/17 13:36:58;;;;;;;2.30;1.47;;;29.80;1.00;;;;;;5052551;28;20437;-82
2023/08/17 13:39:40;;;;;;;4.07;1.63;;;29.90;1.00;;;;;;5051369;28;20948;-83
2023/08/17 13:42:40;;;;;;;3.70;1.73;;;30.00;1.00;;;;;;5065644;28;20414;-83
2023/08/17 13:45:10;;;;;;;4.37;1.60;;;30.40;1.00;;;;;;5052807;28;20453;-83
2023/08/17 13:47:40;;;;;;;4.10;1.37;;;30.50;1.00;;;;;;5062836;28;20850;-84
2023/08/17 13:50:40;;;;;;;1.53;1.43;;;30.70;1.00;;;;;;5046866;28;20499;-82
2023/08/17 13:53:16;;;;;;;4.03;1.70;;;30.80;1.00;;;;;;5040474;28;20450;-82
2023/08/17 13:55:58;;;;;;;2.10;1.40;;;31.10;1.00;;;;;;5054740;28;20402;-83
2023/08/17 13:58:28;;;;;;;1.40;1.30;;;31.20;1.00;;;;;;5043339;28;20414;-83
2023/08/17 14:00:54;;;;;;;1.97;1.60;;;31.30;1.00;;;;;;5054003;28;20430;-83
2023/08/17 14:03:20;;;;;;;3.43;1.47;;;31.30;1.00;;;;;;5054492;28;20415;-83
2023/08/17 14:06:10;;;;;;;4.50;1.73;;;31.30;1.00;;;;;;5049712;28;20263;-84
2023/08/17 14:09:10;;;;;;;5.40;1.60;;;31.10;1.00;;;;;;5041012;28;20661;-83
2023/08/17 14:12:10;;;;;;;3.47;1.40;;;31.10;1.00;;;;;;5053884;28;20434;-84
2023/08/17 14:14:58;;;;;;;2.10;1.90;;;30.90;1.00;;;;;;5044776;28;20457;-83
2023/08/17 14:17:28;;;;;;;6.70;1.77;;;30.80;1.00;;;;;;5042717;28;20468;-83
2023/08/17 14:19:58;;;;;;;3.70;1.60;;;30.90;1.00;;;;;;5053011;28;20410;-83
2023/08/17 14:22:40;;;;;;;1.90;1.77;;;30.90;1.00;;;;;;5053059;28;20480;-83
2023/08/17 14:25:40;;;;;;;1.50;1.40;;;31.00;1.00;;;;;;5052746;28;20776;-83
2023/08/17 14:28:28;;;;;;;2.70;1.50;;;31.10;1.00;;;;;;5052003;28;20475;-84
2023/08/17 14:30:58;;;;;;;1.73;1.60;;;31.20;1.00;;;;;;5053011;28;20479;-80
2023/08/17 14:33:40;;;;;;;1.57;1.47;;;31.20;1.00;;;;;;5049152;28;20544;-80
2023/08/17 14:36:10;;;;;;;1.80;1.57;;;31.30;1.00;;;;;;5053226;28;20422;-79
2023/08/17 14:38:40;;;;;;;3.70;1.70;;;31.50;1.00;;;;;;5045275;28;20902;-80
2023/08/17 14:41:10;;;;;;;4.87;2.13;;;31.60;1.00;;;;;;5049293;28;20804;-80
2023/08/17 14:43:40;;;;;;;2.00;1.90;;;31.70;1.00;;;;;;5036983;28;20869;-80
2023/08/17 14:46:10;;;;;;;4.30;2.07;;;31.70;1.00;;;;;;5041480;28;20426;-84
2023/08/17 14:48:40;;;;;;;2.43;2.23;;;31.80;1.00;;;;;;5053385;28;20935;-84
2023/08/17 14:51:10;;;;;;;4.23;2.00;;;31.90;1.00;;;;;;5039229;28;20953;-84
2023/08/17 14:53:40;;;;;;;6.20;1.70;;;32.10;1.00;;;;;;5052986;28;20851;-84
2023/08/17 14:56:16;;;;;;;1.90;1.80;;;32.30;1.00;;;;;;5051250;28;20538;-84
2023/08/17 14:59:16;;;;;;;12.03;1.97;;;32.50;1.00;;;;;;5053825;28;20449;-83
2023/08/17 15:01:58;;;;;;;1.80;1.70;;;32.80;1.00;;;;;;5052125;28;20418;-85
2023/08/17 15:04:24;;;;;;;2.23;1.67;;;33.00;1.00;;;;;;5051462;28;20426;-84
2023/08/17 15:06:52;;;;;;;6.40;1.90;;;33.30;1.00;;;;;;5046308;28;20422;-83
2023/08/17 15:09:29;;;;;;;2.20;1.60;;;33.50;1.00;;;;;;5039586;28;20242;-84
2023/08/17 15:12:10;;;;;;;1.57;1.43;;;33.80;1.00;;;;;;5053453;28;20449;-85
2023/08/17 15:15:10;;;;;;;2.17;1.63;;;34.70;1.00;;;;;;5052665;28;20485;-85
2023/08/17 15:17:40;;;;;;;3.50;1.53;;;36.00;1.00;;;;;;5048646;28;20422;-85
2023/08/17 15:20:11;;;;;;;7.53;1.30;;;37.10;1.00;;;;;;5049569;28;20426;-85
2023/08/17 15:22:40;;;;;;;3.53;1.60;;;37.50;1.00;;;;;;5046564;28;20472;-85
2023/08/17 15:25:10;;;;;;;5.03;1.30;;;37.80;1.00;;;;;;5046307;28;20936;-85
2023/08/17 15:27:36;;;;;;;9.53;1.67;;;38.90;1.00;;;;;;5050727;28;20480;-86
2023/08/17 15:30:10;;;;;;;2.33;1.20;;;39.00;1.00;;;;;;5039393;28;20456;-85
2023/08/17 15:32:58;;;;;;;2.03;1.20;;;39.50;1.00;;;;;;5041366;28;20426;-81
2023/08/17 15:35:28;;;;;;;4.40;1.40;;;39.80;1.00;;;;;;5049007;28;20443;-81
2023/08/17 15:37:58;;;;;;;3.53;1.50;;;40.20;1.00;;;;;;5047758;28;20954;-79
2023/08/17 15:40:28;;;;;;;1.77;1.30;;;40.70;1.00;;;;;;5051068;28;20426;-80
2023/08/17 15:43:10;;;;;;;1.00;1.00;;;41.10;1.00;;;;;;5045503;28;20436;-80
2023/08/17 15:45:42;;;;;;;2.33;1.30;;;41.10;1.00;;;;;;5052514;28;20458;-80
2023/08/17 15:48:28;;;;;;;3.17;1.27;;;40.90;1.00;;;;;;5052701;28;20436;-84
2023/08/17 15:50:58;;;;;;;4.30;1.10;;;40.70;1.00;;;;;;5039099;28;20465;-88
2023/08/17 15:53:29;;;;;;;3.70;1.27;;;40.60;1.00;;;;;;5054876;28;20473;-87
2023/08/17 15:55:58;;;;;;;8.53;1.43;;;40.80;1.00;;;;;;5043383;28;20498;-87
2023/08/17 15:58:58;;;;;;;1.40;1.30;;;41.10;1.00;;;;;;5055956;28;20420;-87
2023/08/17 16:01:24;;;;;;;4.53;1.40;;;41.30;1.00;;;;;;5055671;28;20421;-88
2023/08/17 16:03:58;;;;;;;9.40;5.40;;;41.10;1.00;;;;;;5052995;28;20926;-87
2023/08/17 16:06:58;;;;;;;2.40;1.50;;;41.20;1.00;;;;;;5036693;28;20645;-86
2023/08/17 16:09:28;;;;;;;2.10;1.43;;;41.30;1.00;;;;;;5054151;28;20529;-85
2023/08/17 16:11:58;;;;;;;3.13;1.50;;;41.10;1.00;;;;;;5063053;28;20767;-85
2023/08/17 16:14:28;;;;;;;1.63;1.27;;;40.90;1.00;;;;;;5052270;28;20608;-85
2023/08/17 16:16:58;;;;;;;1.43;1.37;;;40.80;1.00;;;;;;5055477;28;20433;-85
2023/08/17 16:19:28;;;;;;;6.13;1.50;;;40.80;1.00;;;;;;5055909;28;20417;-80
2023/08/17 16:22:28;;;;;;;1.27;1.17;;;41.20;1.00;;;;;;5055973;28;20433;-80
2023/08/17 16:25:34;;;;;;;7.20;1.33;;;41.50;1.00;;;;;;5053553;28;20419;-80
2023/08/17 16:28:00;;;;;;;6.30;1.20;;;42.40;1.00;;;;;;5053238;28;20444;-81
2023/08/17 16:30:28;;;;;;;3.17;1.37;;;42.60;1.00;;;;;;5048114;28;20438;-80
2023/08/17 16:33:40;;;;;;;1.27;1.17;;;43.00;1.00;;;;;;5054383;28;21103;-81
2023/08/17 16:36:40;;;;;;;1.57;1.17;;;43.00;1.00;;;;;;5055766;28;20417;-80
2023/08/17 16:39:16;;;;;;;1.20;1.10;;;43.30;1.00;;;;;;5048750;28;20430;-81
2023/08/17 16:45:18;;;;;;;1.90;1.03;;;44.10;1.00;;;;;;5050228;28;20767;-81
2023/08/17 16:51:30;;;;;;;2.50;1.00;;;44.90;1.00;;;;;;5046752;28;20409;-85
2023/08/17 16:54:16;;;;;;;1.00;1.00;;;45.60;1.00;;;;;;5055999;28;20447;-86
2023/08/17 17:00:35;;;;;;;1.20;1.10;;;44.70;1.00;;;;;;5045692;28;20488;-86
2023/08/17 17:03:16;;;;;;;2.17;1.20;;;43.50;1.00;;;;;;5042630;28;20416;-83
2023/08/17 17:09:04;;;;;;;1.80;1.70;;;41.30;1.00;;;;;;5047468;28;20433;-84
2023/08/17 17:14:53;;;;;;;5.90;1.63;;;38.50;1.00;;;;;;5055317;28;20203;-81
2023/08/17 17:20:52;;;;;;;3.13;1.60;;;36.20;1.00;;;;;;5051846;28;20441;-78
2023/08/17 17:30:40;;;;;;;2.07;1.97;;;33.70;1.00;;;;;;5049012;28;20472;-79
2023/08/17 17:33:46;;;;;;;6.93;1.70;;;32.90;1.00;;;;;;5046550;28;20454;-79
2023/08/17 17:39:47;;;;;;;5.80;1.80;;;31.60;1.00;;;;;;5050433;28;20417;-82
2023/08/17 17:46:18;;;;;;;8.30;2.10;;;30.70;1.00;;;;;;5052772;28;21215;-83
2023/08/17 17:49:40;;;;;;;9.83;2.10;;;30.00;1.00;;;;;;5053392;28;20480;-81
2023/08/17 17:52:40;;;;;;;2.10;1.90;;;29.90;1.00;;;;;;5048250;28;20408;-82
2023/08/17 17:55:10;;;;;;;6.00;2.17;;;29.50;1.00;;;;;;5039726;28;20996;-82
2023/08/17 17:57:46;;;;;;;8.07;2.30;;;28.90;1.00;;;;;;5044070;28;20544;-82
2023/08/17 18:03:35;;;;;;;11.83;2.17;;;28.50;1.00;;;;;;5054679;28;20803;-81
2023/08/17 18:09:23;;;;;;;5.70;2.30;;;27.90;1.00;;;;;;5049565;28;20958;-81
2023/08/17 18:15:10;;;;;;;4.63;2.00;;;27.30;1.00;;;;;;5034873;28;20492;-84
2023/08/17 18:17:52;;;;;;;7.83;2.30;;;27.00;1.00;;;;;;5050441;28;20458;-83
2023/08/17 18:20:58;;;;;;;7.33;2.87;;;26.80;1.00;;;;;;5040554;28;20548;-81
2023/08/17 18:27:22;;;;;;;9.10;3.00;;;26.40;1.00;;;;;;5038557;28;20414;-81
2023/08/17 18:36:32;;;;;;;3.73;2.30;;;25.70;1.00;;;;;;5043097;28;20394;-82
2023/08/17 18:42:19;;;;;;;4.60;2.60;;;25.40;1.00;;;;;;5054116;28;20188;-82
2023/08/17 18:45:22;;;;;;;5.87;2.60;;;25.10;1.00;;;;;;5053928;28;20431;-82
2023/08/17 18:51:34;;;;;;;15.63;3.83;;;24.80;1.00;;;;;;5043384;28;20512;-82
2023/08/17 18:54:22;;;;;;;10.97;2.70;;;24.60;1.00;;;;;;5053970;28;20460;-82
2023/08/17 19:00:16;;;;;;;7.03;3.17;;;24.30;1.00;;;;;;5053051;28;20454;-80
2023/08/17 19:06:16;;;;;;;9.33;3.57;;;24.00;1.00;;;;;;5050052;28;20451;-81
2023/08/17 19:09:16;;;;;;;26.73;4.00;;;23.80;1.00;;;;;;5053471;28;20455;-82
2023/08/17 19:12:04;;;;;;;13.97;3.10;;;23.60;1.00;;;;;;5047390;28;20450;-81
2023/08/17 19:14:40;;;;;;;9.33;3.37;;;23.50;1.00;;;;;;5050241;28;20475;-80
2023/08/17 19:20:28;;;;;;;12.13;3.43;;;23.30;1.00;;;;;;5053820;28;20801;-79
2023/08/17 19:22:55;;;;;;;15.53;4.30;;;23.20;1.00;;;;;;5052721;28;20468;-79
2023/08/17 19:25:34;;;;;;;7.77;3.47;;;23.10;1.00;;;;;;5052767;28;20179;-81
2023/08/17 19:28:22;;;;;;;9.13;3.63;;;23.10;1.00;;;;;;5052951;28;20763;-79